createdAt,value
2018-04-25T04:02:30.912Z,19.37
2018-04-25T04:04:57.421Z,20.00
2018-04-25T04:07:23.326Z,20.70
2018-04-25T04:09:49.238Z,20.40
2018-04-25T04:12:15.676Z,20.23
2018-04-25T04:14:41.505Z,20.17
2018-04-25T04:17:07.642Z,19.00
2018-04-25T04:19:34.120Z,19.60
2018-04-25T04:22:00.083Z,20.30
2018-04-25T04:24:28.548Z,19.50
2018-04-25T04:26:54.383Z,18.90
2018-04-25T04:29:20.233Z,18.33
2018-04-25T04:31:46.616Z,19.27
2018-04-25T04:34:12.584Z,20.63
2018-04-25T04:36:39.189Z,19.97
2018-04-25T04:39:05.055Z,20.83
2018-04-25T04:41:32.249Z,19.23
2018-04-25T04:43:58.722Z,19.77
2018-04-25T04:46:25.531Z,19.70
2018-04-25T04:48:51.369Z,20.10
2018-04-25T04:51:17.201Z,18.10
2018-04-25T04:53:43.027Z,19.63
2018-04-25T04:56:09.849Z,21.30
2018-04-25T04:58:36.590Z,20.90
2018-04-25T05:01:02.405Z,19.43
2018-04-25T05:03:28.230Z,18.03
2018-04-25T05:05:55.640Z,19.30
2018-04-25T05:08:21.525Z,19.53
2018-04-25T05:10:47.374Z,20.27
2018-04-25T05:13:13.524Z,19.97
2018-04-25T05:15:40.217Z,19.80
2018-04-25T05:18:06.109Z,20.87
2018-04-25T05:20:31.999Z,22.00
2018-04-25T05:22:57.950Z,21.97
2018-04-25T05:25:24.769Z,19.70
2018-04-25T05:27:51.557Z,20.40
2018-04-25T05:30:18.351Z,20.43
2018-04-25T05:32:44.224Z,21.20
2018-04-25T05:35:10.076Z,21.03
2018-04-25T05:37:37.671Z,20.30
2018-04-25T05:40:04.375Z,20.90
2018-04-25T05:42:30.217Z,21.40
2018-04-25T05:44:56.774Z,18.83
2018-04-25T05:47:23.423Z,20.70
2018-04-25T05:49:49.326Z,20.80
2018-04-25T05:52:15.179Z,20.00
2018-04-25T05:54:41.022Z,20.63
2018-04-25T05:57:07.738Z,20.00
2018-04-25T05:59:33.615Z,21.40
2018-04-25T06:02:00.204Z,20.20
2018-04-25T06:04:26.076Z,21.60
2018-04-25T06:06:51.918Z,20.33
2018-04-25T06:09:20.180Z,21.20
2018-04-25T06:11:47.006Z,20.40
2018-04-25T06:14:13.000Z,19.30
2018-04-25T06:16:38.924Z,19.57
2018-04-25T06:19:05.986Z,20.80
2018-04-25T06:21:32.817Z,19.00
2018-04-25T06:23:58.961Z,18.40
2018-04-25T06:26:24.853Z,17.90
2018-04-25T06:28:50.944Z,16.77
2018-04-25T06:31:18.834Z,17.03
2018-04-25T06:33:44.683Z,17.50
2018-04-25T06:36:10.716Z,16.10
2018-04-25T06:38:37.497Z,16.07
2018-04-25T06:41:04.408Z,16.77
2018-04-25T06:43:32.041Z,14.70
2018-04-25T06:45:57.901Z,16.40
2018-04-25T06:48:24.451Z,15.30
2018-04-25T06:50:50.333Z,15.37
2018-04-25T06:53:16.202Z,14.47
2018-04-25T06:55:42.069Z,13.00
2018-04-25T06:58:07.943Z,14.43
2018-04-25T07:00:33.848Z,13.27
2018-04-25T07:02:59.722Z,12.63
2018-04-25T07:05:27.601Z,13.27
2018-04-25T07:07:53.989Z,12.30
2018-04-25T07:10:20.579Z,12.47
2018-04-25T07:12:46.564Z,11.87
2018-04-25T07:15:12.414Z,10.97
2018-04-25T07:17:38.263Z,11.53
2018-04-25T07:20:04.114Z,11.90
2018-04-25T07:22:30.699Z,9.97
2018-04-25T07:24:56.590Z,10.30
2018-04-25T07:27:22.489Z,11.50
2018-04-25T07:29:48.348Z,10.27
2018-04-25T07:32:16.146Z,10.70
2018-04-25T07:34:42.634Z,10.53
2018-04-25T07:37:08.470Z,11.27
2018-04-25T07:39:34.280Z,9.80
2018-04-25T07:42:00.173Z,9.50
2018-04-25T07:44:26.559Z,8.73
2018-04-25T07:46:52.806Z,9.57
2018-04-25T07:49:18.611Z,7.10
2018-04-25T07:51:44.466Z,6.83
2018-04-25T07:54:10.317Z,7.00
2018-04-25T07:56:37.173Z,6.43
2018-04-25T07:59:02.997Z,6.00
2018-04-25T08:01:28.823Z,6.80
2018-04-25T08:03:55.414Z,5.80
2018-04-25T08:06:21.251Z,5.57
2018-04-25T08:08:47.100Z,5.83
2018-04-25T08:11:12.972Z,6.13
2018-04-25T08:13:52.323Z,5.80
2018-04-25T08:16:30.379Z,7.13
2018-04-25T08:19:08.800Z,5.97
2018-04-25T08:21:42.009Z,6.10
2018-04-25T08:24:08.460Z,6.00
2018-04-25T08:26:35.122Z,6.07
2018-04-25T08:29:00.973Z,5.00
2018-04-25T08:31:27.867Z,5.60
2018-04-25T08:33:53.743Z,6.13
2018-04-25T08:36:20.477Z,6.00
2018-04-25T08:38:46.374Z,5.47
2018-04-25T08:41:12.259Z,5.83
2018-04-25T08:43:39.913Z,5.50
2018-04-25T08:46:05.748Z,6.10
2018-04-25T08:48:32.560Z,6.87
2018-04-25T08:51:00.153Z,6.43
2018-04-25T08:53:26.296Z,7.53
2018-04-25T08:55:52.207Z,6.50
2018-04-25T08:58:18.117Z,6.80
2018-04-25T09:00:44.609Z,5.90
2018-04-25T09:03:10.535Z,6.83
2018-04-25T09:05:36.402Z,6.03
2018-04-25T09:08:03.190Z,6.43
2018-04-25T09:10:29.069Z,5.87
2018-04-25T09:12:54.900Z,6.70
2018-04-25T09:15:21.757Z,6.90
2018-04-25T09:17:48.491Z,6.10
2018-04-25T09:20:14.639Z,6.37
2018-04-25T09:22:40.489Z,7.53
2018-04-25T09:25:06.878Z,6.80
2018-04-25T09:27:32.863Z,6.77
2018-04-25T09:29:58.720Z,6.80
2018-04-25T09:32:24.594Z,6.20
2018-04-25T09:34:50.429Z,7.10
2018-04-25T09:37:16.288Z,5.80
2018-04-25T09:39:42.128Z,6.20
2018-04-25T09:42:07.981Z,6.40
2018-04-25T09:44:33.823Z,5.90
2018-04-25T09:46:59.676Z,6.40
2018-04-25T09:49:26.441Z,6.80
2018-04-25T09:51:52.351Z,6.30
2018-04-25T09:54:18.225Z,9.53
2018-04-25T09:56:44.094Z,6.93
2018-04-25T09:59:10.877Z,6.77
2018-04-25T10:01:36.722Z,6.70
2018-04-25T10:04:02.589Z,6.10
2018-04-25T10:06:29.458Z,6.43
2018-04-25T10:08:55.953Z,7.50
2018-04-25T10:11:21.816Z,7.30
2018-04-25T10:13:47.649Z,6.87
2018-04-25T10:16:13.594Z,7.80
2018-04-25T10:18:39.440Z,6.57
2018-04-25T10:21:05.318Z,7.57
2018-04-25T10:23:31.182Z,6.63
2018-04-25T10:25:57.040Z,7.17
2018-04-25T10:28:23.458Z,7.27
2018-04-25T10:30:50.281Z,5.50
2018-04-25T10:33:18.493Z,6.83
2018-04-25T10:35:44.635Z,6.83
2018-04-25T10:38:13.271Z,7.77
2018-04-25T10:40:40.415Z,6.43
2018-04-25T10:43:06.341Z,5.80
2018-04-25T10:45:33.012Z,7.73
2018-04-25T10:47:58.879Z,5.90
2018-04-25T10:50:26.226Z,5.00
2018-04-25T10:52:52.082Z,5.40
2018-04-25T10:55:19.915Z,5.87
2018-04-25T10:57:47.700Z,5.47
2018-04-25T11:00:13.560Z,4.73
2018-04-25T11:02:39.490Z,5.20
2018-04-25T11:05:05.680Z,4.33
2018-04-25T11:07:32.175Z,4.20
2018-04-25T11:09:58.926Z,4.90
2018-04-25T11:12:24.767Z,4.57
2018-04-25T11:14:51.393Z,4.47
2018-04-25T11:17:17.333Z,4.70
2018-04-25T11:19:43.157Z,4.13
2018-04-25T11:22:09.003Z,5.03
2018-04-25T11:24:34.937Z,4.40
2018-04-25T11:27:00.822Z,5.10
2018-04-25T11:29:27.769Z,3.87
2018-04-25T11:31:53.719Z,4.37
2018-04-25T11:34:19.529Z,4.00
2018-04-25T11:36:45.372Z,3.80
2018-04-25T11:39:11.292Z,3.90
2018-04-25T11:41:37.161Z,4.10
2018-04-25T11:44:03.448Z,4.17
2018-04-25T11:46:29.326Z,3.70
2018-04-25T11:48:55.871Z,3.83
2018-04-25T11:51:24.377Z,3.93
2018-04-25T11:53:50.245Z,3.80
2018-04-25T11:56:16.124Z,4.50
2018-04-25T11:58:42.670Z,4.30
2018-04-25T12:01:10.132Z,3.77
2018-04-25T12:03:36.780Z,4.30
2018-04-25T12:06:02.617Z,5.67
2018-04-25T12:08:28.459Z,4.70
2018-04-25T12:10:55.742Z,3.97
2018-04-25T12:13:21.710Z,4.30
2018-04-25T12:15:47.589Z,5.30
2018-04-25T12:18:13.510Z,4.63
2018-04-25T12:20:40.207Z,4.60
2018-04-25T12:23:06.702Z,3.90
2018-04-25T12:25:33.603Z,4.10
2018-04-25T12:28:00.323Z,4.63
2018-04-25T12:30:27.526Z,4.67
2018-04-25T12:32:55.627Z,4.03
2018-04-25T12:35:22.359Z,5.23
2018-04-25T12:37:48.257Z,4.60
2018-04-25T12:40:14.161Z,4.30
2018-04-25T12:42:40.604Z,5.17
2018-04-25T12:45:07.974Z,5.13
2018-04-25T12:47:34.708Z,4.90
2018-04-25T12:50:01.738Z,5.00
2018-04-25T12:52:28.545Z,4.70
2018-04-25T12:54:54.502Z,4.73
2018-04-25T12:57:20.354Z,5.50
2018-04-25T12:59:47.626Z,5.40
2018-04-25T13:02:13.508Z,4.90
2018-04-25T13:04:39.392Z,5.33
2018-04-25T13:07:05.339Z,5.33
2018-04-25T13:09:32.043Z,5.33
2018-04-25T13:11:58.704Z,5.50
2018-04-25T13:14:25.372Z,5.73
2018-04-25T13:16:51.291Z,5.13
2018-04-25T13:19:17.157Z,4.53
2018-04-25T13:21:44.027Z,4.70
2018-04-25T13:24:10.041Z,4.80
2018-04-25T13:26:37.283Z,4.30
2018-04-25T13:29:04.079Z,4.77
2018-04-25T13:31:32.156Z,4.80
2018-04-25T13:33:59.913Z,4.30
2018-04-25T13:36:26.441Z,5.00
2018-04-25T13:38:52.386Z,4.47
2018-04-25T13:41:18.228Z,5.03
2018-04-25T13:43:45.655Z,3.97
2018-04-25T13:46:13.078Z,4.97
2018-04-25T13:48:39.950Z,4.50
2018-04-25T13:51:05.790Z,4.83
2018-04-25T13:53:31.992Z,3.97
2018-04-25T13:55:58.743Z,4.57
2018-04-25T13:58:25.588Z,3.90
2018-04-25T14:00:51.500Z,4.43
2018-04-25T14:03:17.364Z,3.60
2018-04-25T14:05:43.653Z,3.67
2018-04-25T14:08:09.555Z,4.53
2018-04-25T14:10:35.456Z,4.10
2018-04-25T14:13:01.368Z,3.67
2018-04-25T14:15:27.331Z,3.53
2018-04-25T14:17:55.144Z,3.40
2018-04-25T14:20:21.852Z,5.10
2018-04-25T14:22:48.726Z,3.97
2018-04-25T14:25:15.689Z,3.33
2018-04-25T14:27:42.870Z,3.10
2018-04-25T14:30:10.149Z,3.37
2018-04-25T14:32:36.933Z,3.63
2018-04-25T14:35:04.231Z,3.80
2018-04-25T14:37:30.177Z,3.83
2018-04-25T14:39:57.885Z,3.73
2018-04-25T14:42:23.858Z,4.03
2018-04-25T14:44:50.782Z,4.50
2018-04-25T14:47:17.904Z,4.10
2018-04-25T14:49:47.705Z,5.00
2018-04-25T14:52:13.609Z,4.53
2018-04-25T14:54:41.048Z,5.10
2018-04-25T14:57:06.978Z,5.50
2018-04-25T14:59:33.255Z,4.60
2018-04-25T15:02:01.375Z,5.60
2018-04-25T15:04:27.413Z,5.90
2018-04-25T15:06:58.403Z,5.13
2018-04-25T15:09:24.313Z,6.00
2018-04-25T15:11:51.260Z,5.83
2018-04-25T15:14:18.366Z,5.40
2018-04-25T15:16:46.373Z,5.43
2018-04-25T15:19:13.690Z,5.00
2018-04-25T15:21:41.153Z,5.50
2018-04-25T15:24:08.385Z,4.73
2018-04-25T15:26:35.393Z,5.40
2018-04-25T15:29:01.918Z,5.03
2018-04-25T15:31:29.222Z,5.90
2018-04-25T15:33:58.174Z,5.30
2018-04-25T15:36:24.707Z,5.10
2018-04-25T15:38:50.627Z,5.10
2018-04-25T15:41:17.422Z,5.07
2018-04-25T15:43:43.340Z,5.47
2018-04-25T15:46:10.012Z,4.73
2018-04-25T15:48:35.922Z,4.40
2018-04-25T15:51:01.821Z,4.93
2018-04-25T15:53:28.805Z,4.60
2018-04-25T15:55:55.297Z,5.07
2018-04-25T15:58:22.561Z,5.20
2018-04-25T16:00:48.534Z,5.17
2018-04-25T16:03:15.975Z,4.67
2018-04-25T16:05:41.861Z,4.60
2018-04-25T16:08:07.944Z,4.33
2018-04-25T16:10:34.836Z,4.40
2018-04-25T16:13:00.753Z,3.90
2018-04-25T16:15:27.563Z,5.70
2018-04-25T16:17:54.405Z,4.00
2018-04-25T16:20:21.696Z,4.07
2018-04-25T16:22:47.612Z,4.00
2018-04-25T16:25:13.532Z,4.00
2018-04-25T16:27:39.482Z,3.00
2018-04-25T16:30:05.599Z,3.70
2018-04-25T16:32:32.528Z,3.37
2018-04-25T16:34:59.313Z,2.70
2018-04-25T16:37:25.806Z,2.33
2018-04-25T16:39:52.233Z,3.00
2018-04-25T16:42:20.727Z,2.87
2018-04-25T16:44:46.660Z,2.53
2018-04-25T16:47:14.274Z,3.40
2018-04-25T16:49:40.208Z,2.90
2018-04-25T16:52:06.103Z,2.50
2018-04-25T16:54:35.525Z,2.87
2018-04-25T16:57:01.506Z,2.40
2018-04-25T16:59:27.313Z,2.60
2018-04-25T17:01:53.727Z,2.50
2018-04-25T17:04:20.655Z,2.40
2018-04-25T17:06:47.375Z,2.10
2018-04-25T17:09:14.270Z,2.20
2018-04-25T17:11:41.590Z,2.30
2018-04-25T17:14:09.006Z,2.20
2018-04-25T17:16:35.968Z,2.30
2018-04-25T17:19:01.925Z,2.10
2018-04-25T17:21:30.750Z,2.40
2018-04-25T17:23:56.624Z,2.33
2018-04-25T17:26:22.517Z,2.00
2018-04-25T17:28:49.883Z,2.37
2018-04-25T17:31:16.808Z,2.17
2018-04-25T17:33:44.076Z,2.30
2018-04-25T17:36:10.575Z,1.90
2018-04-25T17:38:37.490Z,2.20
2018-04-25T17:41:04.596Z,2.07
2018-04-25T17:43:30.436Z,1.90
2018-04-25T17:45:56.901Z,2.50
2018-04-25T17:48:24.324Z,2.30
2018-04-25T17:50:51.779Z,2.10
2018-04-25T17:53:19.505Z,2.30
2018-04-25T17:55:51.269Z,1.97
2018-04-25T17:58:18.219Z,2.40
2018-04-25T18:00:44.887Z,2.03
2018-04-25T18:03:11.570Z,1.83
2018-04-25T18:05:38.311Z,2.90
2018-04-25T18:08:04.266Z,3.60
2018-04-25T18:10:30.807Z,4.00
2018-04-25T18:12:56.635Z,3.87
2018-04-25T18:15:22.538Z,3.97
2018-04-25T18:17:49.760Z,3.83
2018-04-25T18:20:15.610Z,4.33
2018-04-25T18:22:42.279Z,4.03
2018-04-25T18:25:08.465Z,4.07
2018-04-25T18:27:34.991Z,4.27
2018-04-25T18:30:00.877Z,4.00
2018-04-25T18:32:26.825Z,3.97
2018-04-25T18:34:52.739Z,4.00
2018-04-25T18:37:18.682Z,3.80
2018-04-25T18:39:45.465Z,4.10
2018-04-25T18:42:12.812Z,4.40
2018-04-25T18:44:38.682Z,4.20
2018-04-25T18:47:04.585Z,3.87
2018-04-25T18:49:31.098Z,3.67
2018-04-25T18:51:56.906Z,4.00
2018-04-25T18:54:23.470Z,4.07
2018-04-25T18:56:49.323Z,3.80
2018-04-25T18:59:15.843Z,4.20
2018-04-25T19:01:43.374Z,3.50
2018-04-25T19:04:10.166Z,3.60
2018-04-25T19:06:36.401Z,3.17
2018-04-25T19:09:02.501Z,3.53
2018-04-25T19:11:28.798Z,3.00
2018-04-25T19:13:54.684Z,3.07
2018-04-25T19:16:20.607Z,3.53
2018-04-25T19:18:47.995Z,3.50
2018-04-25T19:21:14.275Z,2.67
2018-04-25T19:23:41.012Z,3.73
2018-04-25T19:26:07.857Z,2.60
2018-04-25T19:28:33.817Z,3.57
2018-04-25T19:30:59.723Z,3.10
2018-04-25T19:33:26.129Z,3.30
2018-04-25T19:35:55.293Z,3.27
2018-04-25T19:38:21.246Z,3.83
2018-04-25T19:40:48.135Z,3.77
2018-04-25T19:43:16.892Z,3.40
2018-04-25T19:45:42.924Z,3.20
2018-04-25T19:48:08.827Z,3.10
2018-04-25T19:50:34.756Z,2.90
2018-04-25T19:53:01.667Z,3.73
2018-04-25T19:55:28.532Z,3.80
2018-04-25T19:57:54.461Z,3.40
2018-04-25T20:00:21.316Z,2.87
2018-04-25T20:02:47.197Z,3.40
2018-04-25T20:05:14.917Z,3.33
2018-04-25T20:07:40.806Z,3.20
2018-04-25T20:10:06.695Z,3.40
2018-04-25T20:12:35.171Z,3.53
2018-04-25T20:15:01.984Z,3.37
2018-04-25T20:17:27.870Z,3.53
2018-04-25T20:19:53.781Z,3.40
2018-04-25T20:22:21.731Z,3.43
2018-04-25T20:24:48.197Z,3.03
2018-04-25T20:27:14.081Z,3.07
2018-04-25T20:29:41.238Z,3.17
2018-04-25T20:32:08.599Z,3.27
2018-04-25T20:34:35.319Z,2.93
2018-04-25T20:37:01.284Z,3.13
2018-04-25T20:39:27.144Z,3.07
2018-04-25T20:44:25.000Z,2.93
2018-04-25T20:46:52.502Z,2.90
2018-04-25T20:49:19.384Z,3.43
2018-04-25T20:51:46.528Z,3.37
2018-04-25T20:54:13.132Z,2.93
2018-04-25T20:56:39.040Z,2.73
2018-04-25T20:59:07.058Z,3.30
2018-04-25T21:01:33.516Z,3.00
2018-04-25T21:03:59.401Z,2.60
2018-04-25T21:06:25.315Z,2.50
2018-04-25T21:08:51.184Z,3.13
2018-04-25T21:11:17.938Z,3.17
2018-04-25T21:13:43.824Z,2.20
2018-04-25T21:16:09.817Z,2.67
2018-04-25T21:18:38.019Z,2.73
2018-04-25T21:21:04.798Z,2.63
2018-04-25T21:23:31.651Z,2.60
2018-04-25T21:25:57.533Z,2.20
2018-04-25T21:28:24.007Z,2.53
2018-04-25T21:30:50.675Z,2.60
2018-04-25T21:33:17.425Z,2.30
2018-04-25T21:35:43.940Z,2.90
2018-04-25T21:38:10.437Z,2.60
2018-04-25T21:40:36.307Z,2.23
2018-04-25T21:43:02.175Z,2.33
2018-04-25T21:45:28.050Z,2.10
2018-04-25T21:47:53.923Z,1.93
2018-04-25T21:50:19.809Z,1.80
2018-04-25T21:52:45.755Z,1.80
2018-04-25T21:55:11.671Z,1.80
2018-04-25T21:57:37.568Z,1.50
2018-04-25T22:00:03.472Z,1.50
2018-04-25T22:02:30.910Z,1.50
2018-04-25T22:04:59.555Z,1.60
2018-04-25T22:07:25.456Z,1.70
2018-04-25T22:09:55.686Z,1.60
2018-04-25T22:12:22.612Z,1.30
2018-04-25T22:14:49.323Z,1.80
2018-04-25T22:17:18.119Z,1.50
2018-04-25T22:19:44.021Z,1.90
2018-04-25T22:22:09.882Z,1.80
2018-04-25T22:24:37.324Z,1.80
2018-04-25T22:27:03.210Z,2.00
2018-04-25T22:29:29.118Z,1.67
2018-04-25T22:31:56.213Z,1.77
2018-04-25T22:34:24.476Z,2.00
2018-04-25T22:36:52.445Z,1.90
2018-04-25T22:39:21.149Z,1.60
2018-04-25T22:41:47.787Z,2.17
2018-04-25T22:44:14.646Z,2.30
2018-04-25T22:46:41.414Z,1.77
2018-04-25T22:49:08.026Z,1.73
2018-04-25T22:51:33.920Z,2.10
2018-04-25T22:54:00.396Z,1.90
2018-04-25T22:56:26.275Z,2.20
2018-04-25T22:58:53.384Z,1.97
2018-04-25T23:01:19.243Z,2.67
2018-04-25T23:03:48.833Z,1.97
2018-04-25T23:06:14.702Z,2.00
2018-04-25T23:08:41.101Z,1.83
2018-04-25T23:11:10.052Z,2.30
2018-04-25T23:13:35.952Z,2.10
2018-04-25T23:16:02.797Z,1.57
2018-04-25T23:18:28.659Z,2.10
2018-04-25T23:20:56.613Z,2.23
2018-04-25T23:23:23.442Z,2.17
2018-04-25T23:25:51.199Z,1.93
2018-04-25T23:28:17.114Z,1.87
2018-04-25T23:30:43.079Z,2.10
2018-04-25T23:33:10.399Z,2.37
2018-04-25T23:35:36.907Z,1.97
2018-04-25T23:38:03.655Z,2.07
2018-04-25T23:40:30.710Z,1.87
2018-04-25T23:42:56.601Z,2.20
2018-04-25T23:45:22.836Z,2.17
2018-04-25T23:47:50.589Z,2.37
2018-04-25T23:50:17.812Z,1.87
2018-04-25T23:52:48.505Z,1.80
2018-04-25T23:55:15.322Z,1.93
2018-04-25T23:57:42.032Z,1.70
